Аэропорт: Кадала. Чита

ICAO: UIAA

METAR:
2021-07-28 13:30:00
UIAA 281330Z VRB01MPS 9999 FEW043CB 16/14 Q1004 R29/CLRD70 NOSIG RMK QFE695/0927
METAR:
2021-07-28 11:00:00
TAF UIAA 281100Z 2812/2912 20003MPS 9999 SCT030CB TEMPO 2818/2824 0500 FG VV002